sensor_id;sensor_type;location;lat;lon;timestamp;temperature;humidity
23562;DHT22;11959;49.418;8.728;2023-09-19T00:00:46;17.70;99.90
23562;DHT22;11959;49.418;8.728;2023-09-19T00:03:12;17.70;99.90
23562;DHT22;11959;49.418;8.728;2023-09-19T00:05:39;17.70;99.90
23562;DHT22;11959;49.418;8.728;2023-09-19T00:08:05;17.70;99.90
23562;DHT22;11959;49.418;8.728;2023-09-19T00:10:32;17.60;99.90
23562;DHT22;11959;49.418;8.728;2023-09-19T00:13:03;17.70;99.90
23562;DHT22;11959;49.418;8.728;2023-09-19T00:15:44;17.70;99.90
23562;DHT22;11959;49.418;8.728;2023-09-19T00:18:17;17.70;99.90
23562;DHT22;11959;49.418;8.728;2023-09-19T00:20:44;17.70;99.90
23562;DHT22;11959;49.418;8.728;2023-09-19T00:23:13;17.70;99.90
23562;DHT22;11959;49.418;8.728;2023-09-19T00:25:39;17.70;99.90
23562;DHT22;11959;49.418;8.728;2023-09-19T00:28:06;17.80;99.90
23562;DHT22;11959;49.418;8.728;2023-09-19T00:30:33;17.70;99.90
23562;DHT22;11959;49.418;8.728;2023-09-19T00:32:59;17.70;99.90
23562;DHT22;11959;49.418;8.728;2023-09-19T00:35:26;17.70;99.90
23562;DHT22;11959;49.418;8.728;2023-09-19T00:37:52;17.70;99.90
23562;DHT22;11959;49.418;8.728;2023-09-19T00:40:19;17.70;99.90
23562;DHT22;11959;49.418;8.728;2023-09-19T00:42:46;17.70;99.90
23562;DHT22;11959;49.418;8.728;2023-09-19T00:45:14;17.70;99.90
23562;DHT22;11959;49.418;8.728;2023-09-19T00:47:42;17.70;99.90
23562;DHT22;11959;49.418;8.728;2023-09-19T00:50:10;17.80;99.90
23562;DHT22;11959;49.418;8.728;2023-09-19T00:52:37;17.80;99.90
23562;DHT22;11959;49.418;8.728;2023-09-19T00:55:07;17.80;99.90
23562;DHT22;11959;49.418;8.728;2023-09-19T00:57:34;17.70;99.90
23562;DHT22;11959;49.418;8.728;2023-09-19T01:00:01;17.70;99.90
23562;DHT22;11959;49.418;8.728;2023-09-19T01:02:31;17.80;99.90
23562;DHT22;11959;49.418;8.728;2023-09-19T01:04:58;17.80;99.90
23562;DHT22;11959;49.418;8.728;2023-09-19T01:07:25;17.80;99.90
23562;DHT22;11959;49.418;8.728;2023-09-19T01:09:50;17.80;99.90
23562;DHT22;11959;49.418;8.728;2023-09-19T01:12:24;17.80;99.90
23562;DHT22;11959;49.418;8.728;2023-09-19T01:14:59;17.80;99.90
23562;DHT22;11959;49.418;8.728;2023-09-19T01:17:39;17.90;99.90
23562;DHT22;11959;49.418;8.728;2023-09-19T01:20:36;17.90;99.90
23562;DHT22;11959;49.418;8.728;2023-09-19T01:31:20;17.90;99.90
23562;DHT22;11959;49.418;8.728;2023-09-19T01:33:56;17.80;99.90
23562;DHT22;11959;49.418;8.728;2023-09-19T01:36:23;17.90;99.90
23562;DHT22;11959;49.418;8.728;2023-09-19T01:38:50;17.80;99.90
23562;DHT22;11959;49.418;8.728;2023-09-19T01:41:26;17.80;99.90
23562;DHT22;11959;49.418;8.728;2023-09-19T01:43:55;17.80;99.90
23562;DHT22;11959;49.418;8.728;2023-09-19T01:46:25;17.80;99.90
23562;DHT22;11959;49.418;8.728;2023-09-19T01:52:12;17.70;99.90
23562;DHT22;11959;49.418;8.728;2023-09-19T01:54:55;17.80;99.90
23562;DHT22;11959;49.418;8.728;2023-09-19T01:57:41;17.80;99.90
23562;DHT22;11959;49.418;8.728;2023-09-19T02:00:10;17.80;99.90
23562;DHT22;11959;49.418;8.728;2023-09-19T02:02:47;17.80;99.90
23562;DHT22;11959;49.418;8.728;2023-09-19T02:05:22;17.80;99.90
23562;DHT22;11959;49.418;8.728;2023-09-19T02:07:49;17.80;99.90
23562;DHT22;11959;49.418;8.728;2023-09-19T02:10:15;17.80;99.90
23562;DHT22;11959;49.418;8.728;2023-09-19T02:12:42;17.70;99.90
23562;DHT22;11959;49.418;8.728;2023-09-19T02:15:08;17.80;99.90
23562;DHT22;11959;49.418;8.728;2023-09-19T02:17:34;17.70;99.90
23562;DHT22;11959;49.418;8.728;2023-09-19T02:20:00;17.70;99.90
23562;DHT22;11959;49.418;8.728;2023-09-19T02:22:26;17.70;99.90
23562;DHT22;11959;49.418;8.728;2023-09-19T02:24:53;17.70;99.90
23562;DHT22;11959;49.418;8.728;2023-09-19T02:27:19;17.70;99.90
23562;DHT22;11959;49.418;8.728;2023-09-19T02:29:45;17.80;99.90
23562;DHT22;11959;49.418;8.728;2023-09-19T02:32:10;17.70;99.90
23562;DHT22;11959;49.418;8.728;2023-09-19T02:34:36;17.80;99.90
23562;DHT22;11959;49.418;8.728;2023-09-19T02:37:05;17.80;99.90
23562;DHT22;11959;49.418;8.728;2023-09-19T02:39:31;17.70;99.90
23562;DHT22;11959;49.418;8.728;2023-09-19T02:41:57;17.70;99.90
23562;DHT22;11959;49.418;8.728;2023-09-19T02:44:23;17.70;99.90
23562;DHT22;11959;49.418;8.728;2023-09-19T02:46:49;17.80;99.90
23562;DHT22;11959;49.418;8.728;2023-09-19T02:49:16;17.80;99.90
23562;DHT22;11959;49.418;8.728;2023-09-19T02:51:43;17.80;99.90
23562;DHT22;11959;49.418;8.728;2023-09-19T02:54:09;17.80;99.90
23562;DHT22;11959;49.418;8.728;2023-09-19T02:56:35;17.80;99.90
23562;DHT22;11959;49.418;8.728;2023-09-19T02:59:01;17.80;99.90
23562;DHT22;11959;49.418;8.728;2023-09-19T03:01:27;17.80;99.90
23562;DHT22;11959;49.418;8.728;2023-09-19T03:03:53;17.80;99.90
23562;DHT22;11959;49.418;8.728;2023-09-19T03:06:20;17.90;99.90
23562;DHT22;11959;49.418;8.728;2023-09-19T03:08:47;17.90;99.90
23562;DHT22;11959;49.418;8.728;2023-09-19T03:11:14;17.80;99.90
23562;DHT22;11959;49.418;8.728;2023-09-19T03:13:41;17.80;99.90
23562;DHT22;11959;49.418;8.728;2023-09-19T03:16:08;17.90;99.90
23562;DHT22;11959;49.418;8.728;2023-09-19T03:18:34;18.00;99.90
23562;DHT22;11959;49.418;8.728;2023-09-19T03:21:00;17.90;99.90
23562;DHT22;11959;49.418;8.728;2023-09-19T03:23:27;17.90;99.90
23562;DHT22;11959;49.418;8.728;2023-09-19T03:25:53;17.90;99.90
23562;DHT22;11959;49.418;8.728;2023-09-19T03:28:19;17.90;99.90
23562;DHT22;11959;49.418;8.728;2023-09-19T03:30:46;17.80;99.90
23562;DHT22;11959;49.418;8.728;2023-09-19T03:33:12;17.80;99.90
23562;DHT22;11959;49.418;8.728;2023-09-19T03:35:39;17.80;99.90
23562;DHT22;11959;49.418;8.728;2023-09-19T03:38:05;17.80;99.90
23562;DHT22;11959;49.418;8.728;2023-09-19T03:40:31;17.80;99.90
23562;DHT22;11959;49.418;8.728;2023-09-19T03:42:58;17.80;99.90
23562;DHT22;11959;49.418;8.728;2023-09-19T03:45:25;17.80;99.90
23562;DHT22;11959;49.418;8.728;2023-09-19T03:47:51;17.80;99.90
23562;DHT22;11959;49.418;8.728;2023-09-19T03:50:16;17.70;99.90
23562;DHT22;11959;49.418;8.728;2023-09-19T03:52:46;17.70;99.90
23562;DHT22;11959;49.418;8.728;2023-09-19T03:55:11;17.70;99.90
23562;DHT22;11959;49.418;8.728;2023-09-19T03:57:37;17.60;99.90
23562;DHT22;11959;49.418;8.728;2023-09-19T04:00:04;17.50;99.90
23562;DHT22;11959;49.418;8.728;2023-09-19T04:02:38;17.60;99.90
23562;DHT22;11959;49.418;8.728;2023-09-19T04:05:05;17.50;99.90
23562;DHT22;11959;49.418;8.728;2023-09-19T04:07:31;17.40;99.90
23562;DHT22;11959;49.418;8.728;2023-09-19T04:09:56;17.50;99.90
23562;DHT22;11959;49.418;8.728;2023-09-19T04:12:22;17.50;99.90
23562;DHT22;11959;49.418;8.728;2023-09-19T04:14:47;17.40;99.90
23562;DHT22;11959;49.418;8.728;2023-09-19T04:17:14;17.40;99.90
23562;DHT22;11959;49.418;8.728;2023-09-19T04:19:40;17.30;99.90
23562;DHT22;11959;49.418;8.728;2023-09-19T04:22:06;17.40;99.90
23562;DHT22;11959;49.418;8.728;2023-09-19T04:24:32;17.40;99.90
23562;DHT22;11959;49.418;8.728;2023-09-19T04:26:59;17.30;99.90
23562;DHT22;11959;49.418;8.728;2023-09-19T04:29:25;17.30;99.90
23562;DHT22;11959;49.418;8.728;2023-09-19T04:31:52;17.30;99.90
23562;DHT22;11959;49.418;8.728;2023-09-19T04:34:17;17.20;99.90
23562;DHT22;11959;49.418;8.728;2023-09-19T04:36:43;17.20;99.90
23562;DHT22;11959;49.418;8.728;2023-09-19T04:39:09;17.20;99.90
23562;DHT22;11959;49.418;8.728;2023-09-19T04:41:36;17.20;99.90
23562;DHT22;11959;49.418;8.728;2023-09-19T04:44:06;17.20;99.90
23562;DHT22;11959;49.418;8.728;2023-09-19T04:46:35;17.20;99.90
23562;DHT22;11959;49.418;8.728;2023-09-19T04:49:01;17.30;99.90
23562;DHT22;11959;49.418;8.728;2023-09-19T04:51:27;17.20;99.90
23562;DHT22;11959;49.418;8.728;2023-09-19T04:53:58;17.40;99.90
23562;DHT22;11959;49.418;8.728;2023-09-19T04:56:24;17.30;99.90
23562;DHT22;11959;49.418;8.728;2023-09-19T04:58:49;17.20;99.90
23562;DHT22;11959;49.418;8.728;2023-09-19T05:01:15;17.20;99.90
23562;DHT22;11959;49.418;8.728;2023-09-19T05:03:41;17.10;99.90
23562;DHT22;11959;49.418;8.728;2023-09-19T05:06:07;17.10;99.90
23562;DHT22;11959;49.418;8.728;2023-09-19T05:08:33;17.00;99.90
23562;DHT22;11959;49.418;8.728;2023-09-19T05:11:01;17.10;99.90
23562;DHT22;11959;49.418;8.728;2023-09-19T05:13:27;17.10;99.90
23562;DHT22;11959;49.418;8.728;2023-09-19T05:15:53;17.00;99.90
23562;DHT22;11959;49.418;8.728;2023-09-19T05:18:19;17.00;99.90
23562;DHT22;11959;49.418;8.728;2023-09-19T05:20:44;17.00;99.90
23562;DHT22;11959;49.418;8.728;2023-09-19T05:23:10;17.00;99.90
23562;DHT22;11959;49.418;8.728;2023-09-19T05:25:39;17.10;99.90
23562;DHT22;11959;49.418;8.728;2023-09-19T05:28:06;17.10;99.90
23562;DHT22;11959;49.418;8.728;2023-09-19T05:30:33;17.10;99.90
23562;DHT22;11959;49.418;8.728;2023-09-19T05:32:59;17.10;99.90
23562;DHT22;11959;49.418;8.728;2023-09-19T05:35:25;17.00;99.90
23562;DHT22;11959;49.418;8.728;2023-09-19T05:37:52;17.00;99.90
23562;DHT22;11959;49.418;8.728;2023-09-19T05:40:18;17.00;99.90
23562;DHT22;11959;49.418;8.728;2023-09-19T05:42:44;17.00;99.90
23562;DHT22;11959;49.418;8.728;2023-09-19T05:45:10;17.00;99.90
23562;DHT22;11959;49.418;8.728;2023-09-19T05:47:40;17.00;99.90
23562;DHT22;11959;49.418;8.728;2023-09-19T05:50:06;17.10;99.90
23562;DHT22;11959;49.418;8.728;2023-09-19T05:52:37;17.10;99.90
23562;DHT22;11959;49.418;8.728;2023-09-19T05:55:06;17.10;99.90
23562;DHT22;11959;49.418;8.728;2023-09-19T05:57:33;17.20;99.90
23562;DHT22;11959;49.418;8.728;2023-09-19T05:59:59;17.20;99.90
23562;DHT22;11959;49.418;8.728;2023-09-19T06:02:25;17.20;99.90
23562;DHT22;11959;49.418;8.728;2023-09-19T06:04:55;17.20;99.90
23562;DHT22;11959;49.418;8.728;2023-09-19T06:07:24;17.20;99.90
23562;DHT22;11959;49.418;8.728;2023-09-19T06:09:52;17.20;99.90
23562;DHT22;11959;49.418;8.728;2023-09-19T06:12:21;17.20;99.90
23562;DHT22;11959;49.418;8.728;2023-09-19T06:14:47;17.20;99.90
23562;DHT22;11959;49.418;8.728;2023-09-19T06:17:13;17.20;99.90
23562;DHT22;11959;49.418;8.728;2023-09-19T06:19:39;17.10;99.90
23562;DHT22;11959;49.418;8.728;2023-09-19T06:22:07;17.10;99.90
23562;DHT22;11959;49.418;8.728;2023-09-19T06:24:33;17.10;99.90
23562;DHT22;11959;49.418;8.728;2023-09-19T06:26:58;17.20;99.90
23562;DHT22;11959;49.418;8.728;2023-09-19T06:29:26;17.10;99.90
23562;DHT22;11959;49.418;8.728;2023-09-19T06:31:52;17.20;99.90
23562;DHT22;11959;49.418;8.728;2023-09-19T06:34:17;17.20;99.90
23562;DHT22;11959;49.418;8.728;2023-09-19T06:36:43;17.20;99.90
23562;DHT22;11959;49.418;8.728;2023-09-19T06:39:10;17.20;99.90
23562;DHT22;11959;49.418;8.728;2023-09-19T06:41:37;17.30;99.90
23562;DHT22;11959;49.418;8.728;2023-09-19T06:44:04;17.30;99.90
23562;DHT22;11959;49.418;8.728;2023-09-19T06:46:30;17.30;99.90
23562;DHT22;11959;49.418;8.728;2023-09-19T06:49:00;17.30;99.90
23562;DHT22;11959;49.418;8.728;2023-09-19T06:51:28;17.30;99.90
23562;DHT22;11959;49.418;8.728;2023-09-19T06:53:55;17.30;99.90
23562;DHT22;11959;49.418;8.728;2023-09-19T06:56:22;17.30;99.90
23562;DHT22;11959;49.418;8.728;2023-09-19T06:58:50;17.40;99.90
23562;DHT22;11959;49.418;8.728;2023-09-19T07:01:15;17.30;99.90
23562;DHT22;11959;49.418;8.728;2023-09-19T07:03:41;17.40;99.90
23562;DHT22;11959;49.418;8.728;2023-09-19T07:06:07;17.40;99.90
23562;DHT22;11959;49.418;8.728;2023-09-19T07:08:34;17.30;99.90
23562;DHT22;11959;49.418;8.728;2023-09-19T07:10:59;17.40;99.90
23562;DHT22;11959;49.418;8.728;2023-09-19T07:13:25;17.40;99.90
23562;DHT22;11959;49.418;8.728;2023-09-19T07:15:51;17.40;99.90
23562;DHT22;11959;49.418;8.728;2023-09-19T07:18:17;17.40;99.90
23562;DHT22;11959;49.418;8.728;2023-09-19T07:20:46;17.40;99.90
23562;DHT22;11959;49.418;8.728;2023-09-19T07:23:18;17.40;99.90
23562;DHT22;11959;49.418;8.728;2023-09-19T07:25:46;17.50;99.90
23562;DHT22;11959;49.418;8.728;2023-09-19T07:28:12;17.50;99.90
23562;DHT22;11959;49.418;8.728;2023-09-19T07:30:38;17.50;99.90
23562;DHT22;11959;49.418;8.728;2023-09-19T07:33:05;17.60;99.90
23562;DHT22;11959;49.418;8.728;2023-09-19T07:35:31;17.60;99.90
23562;DHT22;11959;49.418;8.728;2023-09-19T07:37:56;17.60;99.90
23562;DHT22;11959;49.418;8.728;2023-09-19T07:40:24;17.60;99.90
23562;DHT22;11959;49.418;8.728;2023-09-19T07:42:52;17.70;99.90
23562;DHT22;11959;49.418;8.728;2023-09-19T07:45:21;17.70;99.90
23562;DHT22;11959;49.418;8.728;2023-09-19T07:47:51;17.70;99.90
23562;DHT22;11959;49.418;8.728;2023-09-19T07:50:17;17.70;99.90
23562;DHT22;11959;49.418;8.728;2023-09-19T07:52:47;17.70;99.90
23562;DHT22;11959;49.418;8.728;2023-09-19T07:55:13;17.80;99.90
23562;DHT22;11959;49.418;8.728;2023-09-19T07:57:45;17.80;99.90
23562;DHT22;11959;49.418;8.728;2023-09-19T08:00:12;17.80;99.90
23562;DHT22;11959;49.418;8.728;2023-09-19T08:02:39;17.80;99.90
23562;DHT22;11959;49.418;8.728;2023-09-19T08:05:06;17.90;99.90
23562;DHT22;11959;49.418;8.728;2023-09-19T08:07:38;17.90;99.90
23562;DHT22;11959;49.418;8.728;2023-09-19T08:10:05;18.00;99.90
23562;DHT22;11959;49.418;8.728;2023-09-19T08:12:39;18.10;99.90
23562;DHT22;11959;49.418;8.728;2023-09-19T08:15:20;18.20;99.90
23562;DHT22;11959;49.418;8.728;2023-09-19T08:17:47;18.10;99.90
23562;DHT22;11959;49.418;8.728;2023-09-19T08:20:13;18.20;99.90
23562;DHT22;11959;49.418;8.728;2023-09-19T08:22:53;18.20;99.90
23562;DHT22;11959;49.418;8.728;2023-09-19T08:25:22;18.20;99.90
23562;DHT22;11959;49.418;8.728;2023-09-19T08:27:48;18.40;99.90
23562;DHT22;11959;49.418;8.728;2023-09-19T08:30:24;18.40;99.90
23562;DHT22;11959;49.418;8.728;2023-09-19T08:32:50;18.40;99.90
23562;DHT22;11959;49.418;8.728;2023-09-19T08:35:16;18.40;99.90
23562;DHT22;11959;49.418;8.728;2023-09-19T08:37:44;18.50;99.90
23562;DHT22;11959;49.418;8.728;2023-09-19T08:40:13;18.60;99.90
23562;DHT22;11959;49.418;8.728;2023-09-19T08:42:52;18.60;99.90
23562;DHT22;11959;49.418;8.728;2023-09-19T08:45:20;18.70;99.90
23562;DHT22;11959;49.418;8.728;2023-09-19T08:51:03;18.80;99.90
23562;DHT22;11959;49.418;8.728;2023-09-19T08:53:54;18.80;99.90
23562;DHT22;11959;49.418;8.728;2023-09-19T08:56:26;18.90;99.90
23562;DHT22;11959;49.418;8.728;2023-09-19T08:59:12;18.90;99.90
23562;DHT22;11959;49.418;8.728;2023-09-19T09:01:39;18.90;99.90
23562;DHT22;11959;49.418;8.728;2023-09-19T09:04:08;19.10;99.90
23562;DHT22;11959;49.418;8.728;2023-09-19T09:06:34;19.10;99.90
23562;DHT22;11959;49.418;8.728;2023-09-19T09:09:02;19.10;99.90
23562;DHT22;11959;49.418;8.728;2023-09-19T09:11:28;19.10;99.90
23562;DHT22;11959;49.418;8.728;2023-09-19T09:13:54;19.10;99.90
23562;DHT22;11959;49.418;8.728;2023-09-19T09:16:20;19.10;99.90
23562;DHT22;11959;49.418;8.728;2023-09-19T09:18:46;19.10;99.90
23562;DHT22;11959;49.418;8.728;2023-09-19T09:21:12;19.20;99.90
23562;DHT22;11959;49.418;8.728;2023-09-19T09:23:40;19.30;99.90
23562;DHT22;11959;49.418;8.728;2023-09-19T09:26:05;19.30;99.90
23562;DHT22;11959;49.418;8.728;2023-09-19T09:28:34;19.40;99.90
23562;DHT22;11959;49.418;8.728;2023-09-19T09:31:01;19.30;99.90
23562;DHT22;11959;49.418;8.728;2023-09-19T09:33:34;19.40;99.90
23562;DHT22;11959;49.418;8.728;2023-09-19T09:36:01;19.40;99.90
23562;DHT22;11959;49.418;8.728;2023-09-19T09:38:30;19.50;99.90
23562;DHT22;11959;49.418;8.728;2023-09-19T09:41:09;19.50;99.90
23562;DHT22;11959;49.418;8.728;2023-09-19T09:43:37;19.40;99.90
23562;DHT22;11959;49.418;8.728;2023-09-19T09:46:17;19.50;99.90
23562;DHT22;11959;49.418;8.728;2023-09-19T09:51:44;19.40;99.90
23562;DHT22;11959;49.418;8.728;2023-09-19T09:54:26;19.50;99.90
23562;DHT22;11959;49.418;8.728;2023-09-19T09:56:59;19.60;99.90
23562;DHT22;11959;49.418;8.728;2023-09-19T10:02:18;19.60;99.90
23562;DHT22;11959;49.418;8.728;2023-09-19T10:04:54;19.60;99.90
23562;DHT22;11959;49.418;8.728;2023-09-19T10:07:40;19.70;99.90
23562;DHT22;11959;49.418;8.728;2023-09-19T10:10:08;19.70;99.90
23562;DHT22;11959;49.418;8.728;2023-09-19T10:12:49;19.70;99.90
23562;DHT22;11959;49.418;8.728;2023-09-19T10:15:21;19.70;99.90
23562;DHT22;11959;49.418;8.728;2023-09-19T10:17:52;19.70;99.90
23562;DHT22;11959;49.418;8.728;2023-09-19T10:20:24;19.60;99.90
23562;DHT22;11959;49.418;8.728;2023-09-19T10:23:10;19.70;99.90
23562;DHT22;11959;49.418;8.728;2023-09-19T10:25:41;19.70;99.90
23562;DHT22;11959;49.418;8.728;2023-09-19T10:28:12;19.80;99.90
23562;DHT22;11959;49.418;8.728;2023-09-19T10:30:41;19.80;99.90
23562;DHT22;11959;49.418;8.728;2023-09-19T10:33:09;19.90;99.90
23562;DHT22;11959;49.418;8.728;2023-09-19T10:35:38;20.00;99.90
23562;DHT22;11959;49.418;8.728;2023-09-19T10:38:06;20.00;99.90
23562;DHT22;11959;49.418;8.728;2023-09-19T10:40:33;20.10;99.90
23562;DHT22;11959;49.418;8.728;2023-09-19T10:43:05;20.10;99.90
23562;DHT22;11959;49.418;8.728;2023-09-19T10:45:35;20.20;99.90
23562;DHT22;11959;49.418;8.728;2023-09-19T10:48:02;20.30;99.90
23562;DHT22;11959;49.418;8.728;2023-09-19T10:50:33;20.40;99.90
23562;DHT22;11959;49.418;8.728;2023-09-19T10:53:03;20.40;99.90
23562;DHT22;11959;49.418;8.728;2023-09-19T10:55:32;20.50;99.90
23562;DHT22;11959;49.418;8.728;2023-09-19T10:57:59;20.50;99.90
23562;DHT22;11959;49.418;8.728;2023-09-19T11:00:26;20.60;99.90
23562;DHT22;11959;49.418;8.728;2023-09-19T11:05:40;20.70;99.90
23562;DHT22;11959;49.418;8.728;2023-09-19T11:08:10;20.70;99.90
23562;DHT22;11959;49.418;8.728;2023-09-19T11:10:48;20.70;99.90
23562;DHT22;11959;49.418;8.728;2023-09-19T11:13:24;20.70;99.90
23562;DHT22;11959;49.418;8.728;2023-09-19T11:26:44;20.50;99.90
23562;DHT22;11959;49.418;8.728;2023-09-19T11:29:30;20.50;99.90
23562;DHT22;11959;49.418;8.728;2023-09-19T11:31:57;20.60;99.90
23562;DHT22;11959;49.418;8.728;2023-09-19T11:39:37;20.90;99.90
23562;DHT22;11959;49.418;8.728;2023-09-19T11:42:42;21.00;99.90
23562;DHT22;11959;49.418;8.728;2023-09-19T11:48:23;21.00;99.90
23562;DHT22;11959;49.418;8.728;2023-09-19T11:50:51;21.00;99.90
23562;DHT22;11959;49.418;8.728;2023-09-19T11:53:18;21.00;99.90
23562;DHT22;11959;49.418;8.728;2023-09-19T11:55:45;21.00;99.90
23562;DHT22;11959;49.418;8.728;2023-09-19T11:58:18;21.00;99.90
23562;DHT22;11959;49.418;8.728;2023-09-19T12:00:45;21.00;99.90
23562;DHT22;11959;49.418;8.728;2023-09-19T12:03:12;21.20;99.90
23562;DHT22;11959;49.418;8.728;2023-09-19T12:05:45;21.20;99.90
23562;DHT22;11959;49.418;8.728;2023-09-19T12:08:14;21.30;99.90
23562;DHT22;11959;49.418;8.728;2023-09-19T12:10:49;21.30;99.90
23562;DHT22;11959;49.418;8.728;2023-09-19T12:13:19;21.30;99.90
23562;DHT22;11959;49.418;8.728;2023-09-19T12:15:46;21.20;99.90
23562;DHT22;11959;49.418;8.728;2023-09-19T12:18:29;21.30;99.90
23562;DHT22;11959;49.418;8.728;2023-09-19T12:20:55;21.40;99.90
23562;DHT22;11959;49.418;8.728;2023-09-19T12:23:23;21.40;99.90
23562;DHT22;11959;49.418;8.728;2023-09-19T12:25:49;21.50;99.90
23562;DHT22;11959;49.418;8.728;2023-09-19T12:28:18;21.50;99.90
23562;DHT22;11959;49.418;8.728;2023-09-19T12:30:44;21.50;99.90
23562;DHT22;11959;49.418;8.728;2023-09-19T12:33:20;21.60;99.90
23562;DHT22;11959;49.418;8.728;2023-09-19T12:35:47;21.70;99.90
23562;DHT22;11959;49.418;8.728;2023-09-19T12:38:28;21.70;99.90
23562;DHT22;11959;49.418;8.728;2023-09-19T12:40:57;21.70;99.90
23562;DHT22;11959;49.418;8.728;2023-09-19T12:43:30;21.80;99.90
23562;DHT22;11959;49.418;8.728;2023-09-19T12:45:58;21.80;99.90
23562;DHT22;11959;49.418;8.728;2023-09-19T12:48:25;21.70;99.90
23562;DHT22;11959;49.418;8.728;2023-09-19T12:53:29;21.60;99.90
23562;DHT22;11959;49.418;8.728;2023-09-19T12:55:59;21.60;99.90
23562;DHT22;11959;49.418;8.728;2023-09-19T12:58:25;21.50;99.90
23562;DHT22;11959;49.418;8.728;2023-09-19T13:00:50;21.50;99.90
23562;DHT22;11959;49.418;8.728;2023-09-19T13:05:59;21.60;99.90
23562;DHT22;11959;49.418;8.728;2023-09-19T13:08:35;21.60;99.90
23562;DHT22;11959;49.418;8.728;2023-09-19T13:11:11;21.60;99.90
23562;DHT22;11959;49.418;8.728;2023-09-19T13:13:43;21.70;99.90
23562;DHT22;11959;49.418;8.728;2023-09-19T13:16:20;21.70;99.90
23562;DHT22;11959;49.418;8.728;2023-09-19T13:18:52;21.70;99.90
23562;DHT22;11959;49.418;8.728;2023-09-19T13:21:34;21.70;99.90
23562;DHT22;11959;49.418;8.728;2023-09-19T13:24:24;21.80;99.90
23562;DHT22;11959;49.418;8.728;2023-09-19T13:26:56;21.90;99.90
23562;DHT22;11959;49.418;8.728;2023-09-19T13:29:22;22.00;99.90
23562;DHT22;11959;49.418;8.728;2023-09-19T13:31:49;22.10;99.90
23562;DHT22;11959;49.418;8.728;2023-09-19T13:34:15;22.10;99.90
23562;DHT22;11959;49.418;8.728;2023-09-19T13:36:43;22.20;99.90
23562;DHT22;11959;49.418;8.728;2023-09-19T13:39:09;22.10;99.90
23562;DHT22;11959;49.418;8.728;2023-09-19T13:41:35;22.20;99.90
23562;DHT22;11959;49.418;8.728;2023-09-19T13:44:04;22.30;99.90
23562;DHT22;11959;49.418;8.728;2023-09-19T13:46:30;22.30;99.90
23562;DHT22;11959;49.418;8.728;2023-09-19T13:48:58;22.30;99.90
23562;DHT22;11959;49.418;8.728;2023-09-19T13:51:26;22.30;99.90
23562;DHT22;11959;49.418;8.728;2023-09-19T13:53:51;22.30;99.90
23562;DHT22;11959;49.418;8.728;2023-09-19T13:56:17;22.30;99.90
23562;DHT22;11959;49.418;8.728;2023-09-19T13:58:43;22.30;99.90
23562;DHT22;11959;49.418;8.728;2023-09-19T14:01:08;22.20;99.90
23562;DHT22;11959;49.418;8.728;2023-09-19T14:03:42;22.10;99.90
23562;DHT22;11959;49.418;8.728;2023-09-19T14:06:13;22.10;99.90
23562;DHT22;11959;49.418;8.728;2023-09-19T14:08:38;22.10;99.90
23562;DHT22;11959;49.418;8.728;2023-09-19T14:11:08;22.20;99.90
23562;DHT22;11959;49.418;8.728;2023-09-19T14:13:34;22.30;99.90
23562;DHT22;11959;49.418;8.728;2023-09-19T14:16:06;22.30;99.90
23562;DHT22;11959;49.418;8.728;2023-09-19T14:18:34;22.30;99.90
23562;DHT22;11959;49.418;8.728;2023-09-19T14:21:07;22.40;99.90
23562;DHT22;11959;49.418;8.728;2023-09-19T14:23:39;22.50;99.90
23562;DHT22;11959;49.418;8.728;2023-09-19T14:26:06;22.50;99.90
23562;DHT22;11959;49.418;8.728;2023-09-19T14:28:32;22.50;99.90
23562;DHT22;11959;49.418;8.728;2023-09-19T14:31:08;22.50;99.90
23562;DHT22;11959;49.418;8.728;2023-09-19T14:33:35;22.60;99.90
23562;DHT22;11959;49.418;8.728;2023-09-19T14:36:08;22.60;99.90
23562;DHT22;11959;49.418;8.728;2023-09-19T14:38:37;22.70;99.90
23562;DHT22;11959;49.418;8.728;2023-09-19T14:41:04;22.70;99.90
23562;DHT22;11959;49.418;8.728;2023-09-19T14:43:30;22.70;99.90
23562;DHT22;11959;49.418;8.728;2023-09-19T14:46:03;22.70;99.90
23562;DHT22;11959;49.418;8.728;2023-09-19T14:48:28;22.80;99.90
23562;DHT22;11959;49.418;8.728;2023-09-19T14:50:54;22.70;99.90
23562;DHT22;11959;49.418;8.728;2023-09-19T14:53:21;22.60;99.90
23562;DHT22;11959;49.418;8.728;2023-09-19T14:55:46;22.70;99.90
23562;DHT22;11959;49.418;8.728;2023-09-19T14:58:13;22.70;99.90
23562;DHT22;11959;49.418;8.728;2023-09-19T15:00:39;22.80;99.90
23562;DHT22;11959;49.418;8.728;2023-09-19T15:03:07;22.70;99.90
23562;DHT22;11959;49.418;8.728;2023-09-19T15:05:32;22.70;99.90
23562;DHT22;11959;49.418;8.728;2023-09-19T15:07:59;22.60;99.90
23562;DHT22;11959;49.418;8.728;2023-09-19T15:10:25;22.50;99.90
23562;DHT22;11959;49.418;8.728;2023-09-19T15:12:51;22.50;99.90
23562;DHT22;11959;49.418;8.728;2023-09-19T15:15:16;22.50;99.90
23562;DHT22;11959;49.418;8.728;2023-09-19T15:17:42;22.40;99.90
23562;DHT22;11959;49.418;8.728;2023-09-19T15:20:08;22.30;99.90
23562;DHT22;11959;49.418;8.728;2023-09-19T15:22:34;22.30;99.90
23562;DHT22;11959;49.418;8.728;2023-09-19T15:25:03;22.30;99.90
23562;DHT22;11959;49.418;8.728;2023-09-19T15:27:29;22.20;99.90
23562;DHT22;11959;49.418;8.728;2023-09-19T15:29:57;22.10;99.90
23562;DHT22;11959;49.418;8.728;2023-09-19T15:32:24;22.20;99.90
23562;DHT22;11959;49.418;8.728;2023-09-19T15:34:50;22.10;99.90
23562;DHT22;11959;49.418;8.728;2023-09-19T15:37:15;22.10;99.90
23562;DHT22;11959;49.418;8.728;2023-09-19T15:39:41;22.10;99.90
23562;DHT22;11959;49.418;8.728;2023-09-19T15:42:08;22.00;99.90
23562;DHT22;11959;49.418;8.728;2023-09-19T15:44:33;22.10;99.90
23562;DHT22;11959;49.418;8.728;2023-09-19T15:46:59;22.10;99.90
23562;DHT22;11959;49.418;8.728;2023-09-19T15:49:25;22.10;99.90
23562;DHT22;11959;49.418;8.728;2023-09-19T15:51:51;22.10;99.90
23562;DHT22;11959;49.418;8.728;2023-09-19T15:54:17;22.00;99.90
23562;DHT22;11959;49.418;8.728;2023-09-19T15:56:44;22.00;99.90
23562;DHT22;11959;49.418;8.728;2023-09-19T15:59:10;22.00;99.90
23562;DHT22;11959;49.418;8.728;2023-09-19T16:01:40;22.00;99.90
23562;DHT22;11959;49.418;8.728;2023-09-19T16:04:07;22.00;99.90
23562;DHT22;11959;49.418;8.728;2023-09-19T16:06:36;22.00;99.90
23562;DHT22;11959;49.418;8.728;2023-09-19T16:09:04;22.10;99.90
23562;DHT22;11959;49.418;8.728;2023-09-19T16:11:33;22.20;99.90
23562;DHT22;11959;49.418;8.728;2023-09-19T16:14:02;22.20;99.90
23562;DHT22;11959;49.418;8.728;2023-09-19T16:16:28;22.20;99.90
23562;DHT22;11959;49.418;8.728;2023-09-19T16:19:01;22.20;99.90
23562;DHT22;11959;49.418;8.728;2023-09-19T16:21:29;22.20;99.90
23562;DHT22;11959;49.418;8.728;2023-09-19T16:23:57;22.20;99.90
23562;DHT22;11959;49.418;8.728;2023-09-19T16:26:26;22.20;99.90